FCI weather

Chesterfield County Airport
Richmond, Virginia, United States

Public forecast

Using degrees Fahrenheit for public forecast. Weather courtesy of forecast.io.

METAR (pilot weather report)

Retrieved 2019/05/20 15:56 UTC (23 minutes ago):

KFCI 201556Z AUTO 25009G15KT 10SM CLR 28/21 A2994 RMK AO2 SLP148 T02830211

TAF (pilot weather forecast)

Closest forecast is Richmond International Airport, 11.4 nm (21.2 km) ENE. Retrieved 2019/05/20 12:22 UTC (4 hours ago):

TAF KRIC 201120Z 2012/2112 21011KT P6SM BKN250 FM201500 24012G20KT P6SM SCT050 TEMPO 2019/2023 BKN050 FM210000 28005KT P6SM SCT250 FM210800 35005KT P6SM SKC